Time;durP1;ratioP1;P1;durP2;ratioP2;P2;SDS_P1;SDS_P2;PMS_P1;PMS_P2;Temp;Humidity;BMP_temperature;BMP_pressure;BME280_temperature;BME280_humidity;BME280_pressure;Samples;Min_cycle;Max_cycle;Signal;HPM_P1;HPM_P2
2023/05/27 00:01:49;;;;;;;4.10;1.63;;;;;;;10.76;100.00;102705.47;6199180;28;20057;-73
2023/05/27 00:04:50;;;;;;;11.60;1.95;;;;;;;10.74;100.00;102703.81;6200864;28;20054;-73
2023/05/27 00:07:52;;;;;;;8.07;2.17;;;;;;;10.69;100.00;102708.31;6200363;28;20058;-73
2023/05/27 00:10:53;;;;;;;10.63;2.05;;;;;;;10.66;100.00;102715.34;6200157;28;20427;-73
2023/05/27 00:13:55;;;;;;;13.05;3.10;;;;;;;10.66;100.00;102720.59;6200426;28;20456;-73
2023/05/27 00:16:57;;;;;;;9.18;2.13;;;;;;;10.63;100.00;102719.84;6200422;28;20046;-73
2023/05/27 00:20:05;;;;;;;8.90;2.03;;;;;;;10.60;100.00;102710.22;6199778;28;20065;-73
2023/05/27 00:23:07;;;;;;;10.20;2.78;;;;;;;10.60;100.00;102712.88;6200216;28;20351;-74
2023/05/27 00:26:09;;;;;;;8.18;2.15;;;;;;;10.60;100.00;102718.13;6200127;28;20050;-73
2023/05/27 00:29:10;;;;;;;15.55;2.45;;;;;;;10.62;100.00;102713.69;6199900;28;20050;-73
2023/05/27 00:32:13;;;;;;;12.88;2.53;;;;;;;10.55;100.00;102709.47;6197655;28;20050;-73
2023/05/27 00:35:14;;;;;;;11.50;2.28;;;;;;;10.59;100.00;102699.75;6200985;28;20057;-74
2023/05/27 00:38:16;;;;;;;7.03;2.13;;;;;;;10.55;100.00;102698.97;6201300;28;20053;-74
2023/05/27 00:41:18;;;;;;;8.38;2.83;;;;;;;10.52;100.00;102698.16;6200458;28;20046;-73
2023/05/27 00:44:19;;;;;;;4.80;1.95;;;;;;;10.49;100.00;102701.72;6201118;28;20054;-73
2023/05/27 00:47:23;;;;;;;13.02;2.90;;;;;;;10.54;100.00;102701.63;6201010;28;20058;-73
2023/05/27 00:50:25;;;;;;;10.70;2.22;;;;;;;10.48;100.00;102692.09;6200743;28;20046;-73
2023/05/27 00:53:27;;;;;;;6.22;1.80;;;;;;;10.45;100.00;102694.81;6200952;28;20053;-73
2023/05/27 00:56:29;;;;;;;7.75;2.15;;;;;;;10.44;100.00;102692.19;6201144;28;20053;-73
2023/05/27 00:59:30;;;;;;;7.93;2.20;;;;;;;10.38;100.00;102698.44;6199824;28;20047;-73
2023/05/27 01:02:33;;;;;;;11.65;2.13;;;;;;;10.41;100.00;102696.63;6191370;28;20046;-73
2023/05/27 01:05:34;;;;;;;7.72;2.00;;;;;;;10.42;100.00;102702.75;6180609;28;20047;-73
2023/05/27 01:08:46;;;;;;;15.00;3.03;;;;;;;10.44;100.00;102698.31;6183947;28;20054;-73
2023/05/27 01:11:56;;;;;;;8.45;2.20;;;;;;;10.33;100.00;102698.53;6178352;28;20432;-73
2023/05/27 01:14:58;;;;;;;12.77;3.28;;;;;;;10.29;100.00;102698.66;6192880;28;20054;-73
2023/05/27 01:18:03;;;;;;;7.07;2.25;;;;;;;10.30;100.00;102701.22;6201143;28;20492;-73
2023/05/27 01:21:08;;;;;;;6.75;2.17;;;;;;;10.29;100.00;102691.63;6200027;28;20064;-73
2023/05/27 01:24:10;;;;;;;10.57;2.10;;;;;;;10.28;100.00;102687.28;6200451;28;20137;-73
2023/05/27 01:27:12;;;;;;;9.65;2.72;;;;;;;10.25;100.00;102689.94;6200550;28;20386;-73
2023/05/27 01:30:14;;;;;;;10.82;1.88;;;;;;;10.18;100.00;102688.34;6200106;28;20050;-73
2023/05/27 01:33:20;;;;;;;8.30;2.53;;;;;;;10.12;100.00;102685.81;6198893;28;20133;-73
2023/05/27 01:36:25;;;;;;;9.85;2.03;;;;;;;10.12;100.00;102686.66;6182051;28;20375;-73
2023/05/27 01:39:29;;;;;;;9.55;2.28;;;;;;;10.03;100.00;102681.59;6175841;28;20431;-73
2023/05/27 01:42:30;;;;;;;6.65;2.10;;;;;;;9.99;100.00;102679.97;6186916;28;20050;-73
2023/05/27 01:45:33;;;;;;;8.52;2.70;;;;;;;10.03;100.00;102676.34;6192463;28;20050;-73
2023/05/27 01:48:34;;;;;;;12.13;2.65;;;;;;;9.95;100.00;102675.66;6205073;28;20046;-73
2023/05/27 01:51:36;;;;;;;6.82;2.15;;;;;;;9.91;100.00;102674.84;6204813;28;20046;-73
2023/05/27 01:54:39;;;;;;;7.80;2.13;;;;;;;9.83;100.00;102670.63;6204838;28;20181;-73
2023/05/27 01:57:40;;;;;;;15.00;2.25;;;;;;;9.82;100.00;102656.66;6204703;28;20050;-73
2023/05/27 02:00:41;;;;;;;4.97;2.03;;;;;;;9.81;100.00;102664.53;6203722;28;20332;-73
2023/05/27 02:03:43;;;;;;;12.70;2.22;;;;;;;9.77;100.00;102658.50;6202325;28;20050;-73
2023/05/27 02:06:44;;;;;;;7.03;2.17;;;;;;;9.73;100.00;102659.44;6204185;28;20355;-73
2023/05/27 02:09:47;;;;;;;3.95;1.90;;;;;;;9.72;100.00;102665.59;6203778;28;20061;-73
2023/05/27 02:12:48;;;;;;;6.93;1.90;;;;;;;9.73;100.00;102663.84;6204050;28;20355;-73
2023/05/27 02:15:50;;;;;;;10.55;3.30;;;;;;;9.73;100.00;102669.09;6204221;28;20049;-73
2023/05/27 02:18:51;;;;;;;11.23;2.22;;;;;;;9.72;100.00;102665.59;6203629;28;20058;-73
2023/05/27 02:21:53;;;;;;;8.13;1.80;;;;;;;9.70;100.00;102670.00;6203927;28;20355;-73
2023/05/27 02:24:55;;;;;;;13.35;2.15;;;;;;;9.67;100.00;102670.03;6203834;28;20458;-73
2023/05/27 02:27:57;;;;;;;2.92;1.77;;;;;;;9.69;100.00;102672.66;6203776;28;20462;-73
2023/05/27 02:30:58;;;;;;;11.07;2.53;;;;;;;9.64;100.00;102670.13;6197873;28;20054;-73
2023/05/27 02:34:00;;;;;;;8.80;1.90;;;;;;;9.64;100.00;102680.63;6179570;28;20129;-74
2023/05/27 02:37:02;;;;;;;7.47;1.95;;;;;;;9.63;100.00;102677.13;6179703;28;20050;-73
2023/05/27 02:40:06;;;;;;;8.65;2.50;;;;;;;9.64;100.00;102678.00;6178962;28;20501;-73
2023/05/27 02:43:08;;;;;;;7.25;2.05;;;;;;;9.63;100.00;102676.28;6179670;28;20078;-73
2023/05/27 02:46:09;;;;;;;13.60;3.00;;;;;;;9.61;100.00;102678.03;6179337;28;20050;-73
2023/05/27 02:49:10;;;;;;;11.70;2.03;;;;;;;9.58;100.00;102678.09;6178923;28;20047;-73
2023/05/27 02:52:12;;;;;;;11.13;2.80;;;;;;;9.55;100.00;102673.78;6179228;28;20139;-73
2023/05/27 02:55:14;;;;;;;9.38;2.17;;;;;;;9.56;100.00;102672.03;6179516;28;20046;-73
2023/05/27 02:58:16;;;;;;;16.27;3.15;;;;;;;9.51;100.00;102671.25;6181456;28;20046;-73
2023/05/27 03:01:17;;;;;;;11.35;2.47;;;;;;;9.36;100.00;102670.63;6199516;28;20046;-73
2023/05/27 03:04:20;;;;;;;10.32;2.58;;;;;;;9.34;100.00;102674.16;6194506;28;20051;-73
2023/05/27 03:07:22;;;;;;;10.25;2.85;;;;;;;9.33;100.00;102673.28;6197449;28;20670;-73
2023/05/27 03:10:24;;;;;;;6.43;2.00;;;;;;;9.29;100.00;102674.22;6202230;28;20347;-73
2023/05/27 03:13:26;;;;;;;11.15;2.10;;;;;;;9.29;100.00;102682.09;6194915;28;20053;-73
2023/05/27 03:16:27;;;;;;;11.10;2.28;;;;;;;9.33;100.00;102677.66;6202869;28;20038;-73
2023/05/27 03:19:28;;;;;;;15.50;3.30;;;;;;;9.31;100.00;102676.81;6201990;28;20049;-73
2023/05/27 03:22:30;;;;;;;10.13;2.70;;;;;;;9.28;100.00;102667.25;6202538;28;20053;-73
2023/05/27 03:25:34;;;;;;;11.10;1.95;;;;;;;9.17;100.00;102666.56;6202347;28;20351;-73
2023/05/27 03:28:35;;;;;;;6.28;1.92;;;;;;;9.19;100.00;102663.94;6202384;28;20046;-73
2023/05/27 03:31:37;;;;;;;10.05;2.78;;;;;;;9.12;100.00;102663.16;6200724;28;20050;-73
2023/05/27 03:34:38;;;;;;;4.72;1.90;;;;;;;9.04;100.00;102662.44;6197828;28;20054;-73
2023/05/27 03:37:39;;;;;;;4.60;1.98;;;;;;;9.10;100.00;102659.69;6201317;28;20046;-73
2023/05/27 03:40:42;;;;;;;11.13;3.13;;;;;;;9.09;100.00;102661.47;6188670;28;20053;-73
2023/05/27 03:43:43;;;;;;;7.40;3.00;;;;;;;8.98;100.00;102660.75;6187916;28;20069;-73
2023/05/27 03:46:45;;;;;;;8.27;2.50;;;;;;;8.98;100.00;102655.50;6189528;28;20451;-73
2023/05/27 03:49:46;;;;;;;9.85;2.20;;;;;;;8.93;100.00;102652.09;6186906;28;20054;-73
2023/05/27 03:52:48;;;;;;;9.50;2.53;;;;;;;8.86;100.00;102653.09;6188123;28;20333;-73
2023/05/27 03:55:51;;;;;;;6.50;2.45;;;;;;;8.82;100.00;102647.03;6187237;28;20639;-73
2023/05/27 03:58:52;;;;;;;8.77;2.55;;;;;;;8.88;100.00;102656.53;6177301;28;20057;-74
2023/05/27 04:01:53;;;;;;;8.45;2.45;;;;;;;8.82;100.00;102660.13;6175075;28;20069;-74
2023/05/27 04:04:55;;;;;;;8.57;2.38;;;;;;;8.84;100.00;102657.47;6181343;28;20042;-73
2023/05/27 04:07:56;;;;;;;6.70;2.17;;;;;;;8.87;100.00;102655.69;6179551;28;20057;-73
2023/05/27 04:10:59;;;;;;;7.18;2.78;;;;;;;8.90;100.00;102670.47;6178889;28;20050;-73
2023/05/27 04:14:00;;;;;;;9.77;2.72;;;;;;;8.87;100.00;102662.69;6182306;28;20050;-73
2023/05/27 04:17:01;;;;;;;10.25;2.40;;;;;;;8.85;100.00;102667.06;6180664;28;20045;-73
2023/05/27 04:20:11;;;;;;;11.02;2.92;;;;;;;8.88;100.00;102667.03;6179051;28;20057;-73
2023/05/27 04:23:12;;;;;;;3.83;2.13;;;;;;;8.98;100.00;102673.84;6179263;28;20367;-73
2023/05/27 04:26:15;;;;;;;7.32;2.50;;;;;;;8.99;100.00;102661.59;6179321;28;20542;-73
2023/05/27 04:29:16;;;;;;;7.60;1.77;;;;;;;8.94;100.00;102658.19;6178832;28;20211;-73
2023/05/27 04:32:20;;;;;;;5.38;2.25;;;;;;;8.97;100.00;102659.03;6179243;28;20110;-73
2023/05/27 04:35:22;;;;;;;8.30;2.45;;;;;;;9.09;100.00;102658.84;6180424;28;20053;-73
2023/05/27 04:38:23;;;;;;;6.57;2.50;;;;;;;9.12;100.00;102655.28;6180867;28;20156;-73
2023/05/27 04:41:28;;;;;;;12.82;2.42;;;;;;;9.16;100.00;102656.97;6179810;28;20053;-73
2023/05/27 04:44:29;;;;;;;8.70;2.72;;;;;;;9.19;100.00;102656.91;6181846;28;20046;-73
2023/05/27 04:47:30;;;;;;;6.38;2.42;;;;;;;9.23;100.00;102650.72;6179061;28;20038;-73
2023/05/27 04:50:32;;;;;;;8.25;2.92;;;;;;;9.26;100.00;102658.53;6181835;28;20654;-73
2023/05/27 04:53:34;;;;;;;13.27;3.00;;;;;;;9.29;100.00;102655.00;6178750;28;20049;-74
2023/05/27 04:56:37;;;;;;;11.20;2.60;;;;;;;9.34;100.00;102658.41;6178948;28;20039;-73
2023/05/27 04:59:58;;;;;;;8.40;2.53;;;;;;;9.40;100.00;102667.06;6194773;28;20057;-73
2023/05/27 05:03:00;;;;;;;8.50;2.80;;;;;;;9.42;100.00;102661.78;6199778;28;20229;-73
2023/05/27 05:06:02;;;;;;;7.00;2.55;;;;;;;9.46;100.00;102660.81;6192997;28;20479;-73
2023/05/27 05:09:04;;;;;;;10.75;2.47;;;;;;;9.52;100.00;102665.94;6192286;28;20050;-73
2023/05/27 05:12:07;;;;;;;8.70;2.72;;;;;;;9.48;100.00;102661.66;6200769;28;20462;-73
2023/05/27 05:15:09;;;;;;;10.45;2.83;;;;;;;9.51;100.00;102660.75;6200958;28;20057;-73
2023/05/27 05:18:11;;;;;;;10.13;3.85;;;;;;;9.42;100.00;102658.28;6191897;28;20047;-73
2023/05/27 05:21:12;;;;;;;8.20;3.03;;;;;;;9.49;100.00;102665.13;6182973;28;20097;-73
2023/05/27 05:24:13;;;;;;;12.15;2.92;;;;;;;9.49;100.00;102662.50;6190574;28;20054;-73
2023/05/27 05:27:16;;;;;;;12.85;2.90;;;;;;;9.48;100.00;102661.66;6205444;28;20058;-73
2023/05/27 05:30:18;;;;;;;11.60;3.28;;;;;;;9.51;100.00;102674.72;6202743;28;20430;-73
2023/05/27 05:33:19;;;;;;;8.48;3.15;;;;;;;9.61;100.00;102665.78;6197440;28;20051;-73
2023/05/27 05:36:21;;;;;;;5.53;2.33;;;;;;;9.72;100.00;102665.59;6180992;28;20356;-73
2023/05/27 05:39:23;;;;;;;9.93;2.13;;;;;;;9.72;100.00;102681.34;6180437;28;20077;-73
2023/05/27 05:42:26;;;;;;;14.90;4.10;;;;;;;9.82;100.00;102668.91;6180974;28;20045;-73
2023/05/27 05:45:27;;;;;;;7.88;2.80;;;;;;;9.80;100.00;102676.81;6192307;28;20045;-73
2023/05/27 05:48:28;;;;;;;3.97;2.50;;;;;;;9.87;100.00;102677.56;6205049;28;20057;-73
2023/05/27 05:51:30;;;;;;;9.60;2.50;;;;;;;9.84;100.00;102667.97;6202816;28;20061;-73
2023/05/27 05:54:32;;;;;;;14.75;3.28;;;;;;;9.81;100.00;102673.31;6200870;28;20047;-73
2023/05/27 05:57:34;;;;;;;8.57;2.20;;;;;;;9.85;100.00;102672.31;6200618;28;20046;-73
2023/05/27 06:00:36;;;;;;;9.38;2.70;;;;;;;9.90;100.00;102673.13;6204110;28;20050;-73
2023/05/27 06:03:37;;;;;;;9.13;2.67;;;;;;;9.99;100.00;102676.44;6204598;28;20043;-73
2023/05/27 06:06:39;;;;;;;18.85;3.03;;;;;;;9.99;100.00;102677.34;6204814;28;20046;-73
2023/05/27 06:09:41;;;;;;;7.40;3.03;;;;;;;10.01;100.00;102674.66;6203890;28;20121;-73
2023/05/27 06:12:44;;;;;;;12.85;3.03;;;;;;;10.03;100.00;102671.09;6204346;28;20065;-73
2023/05/27 06:15:45;;;;;;;13.18;2.58;;;;;;;10.04;100.00;102667.59;6204260;28;20047;-73
2023/05/27 06:18:46;;;;;;;16.25;3.25;;;;;;;10.06;100.00;102671.03;6203813;28;20051;-73
2023/05/27 06:21:48;;;;;;;8.88;2.63;;;;;;;10.08;100.00;102666.63;6195156;28;20055;-73
2023/05/27 06:24:49;;;;;;;10.90;2.95;;;;;;;10.09;100.00;102675.38;6180125;28;20054;-73
2023/05/27 06:27:52;;;;;;;12.38;3.00;;;;;;;10.19;100.00;102666.41;6180070;28;20043;-73
2023/05/27 06:30:53;;;;;;;6.72;2.28;;;;;;;10.32;100.00;102678.44;6179206;28;20053;-73
2023/05/27 06:33:55;;;;;;;10.93;3.22;;;;;;;10.39;100.00;102663.38;6179383;28;20061;-72
2023/05/27 06:36:56;;;;;;;7.82;3.63;;;;;;;10.46;100.00;102651.84;6179702;28;20043;-71
2023/05/27 06:39:57;;;;;;;8.60;2.80;;;;;;;10.49;100.00;102659.66;6179148;28;20054;-72
2023/05/27 06:43:00;;;;;;;5.47;2.30;;;;;;;10.58;100.00;102654.22;6179464;28;20062;-72
2023/05/27 06:46:01;;;;;;;12.85;3.20;;;;;;;10.65;100.00;102653.16;6179417;28;20070;-71
2023/05/27 06:49:03;;;;;;;5.00;2.28;;;;;;;10.67;100.00;102655.72;6178886;28;20137;-71
2023/05/27 06:52:05;;;;;;;8.85;2.75;;;;;;;10.74;100.00;102646.81;6180667;28;20061;-72
2023/05/27 06:55:07;;;;;;;9.40;2.67;;;;;;;10.84;100.00;102644.81;6179230;28;20090;-72
2023/05/27 06:58:10;;;;;;;9.15;3.85;;;;;;;10.89;100.00;102648.22;6179472;28;20062;-71
2023/05/27 07:01:11;;;;;;;9.30;2.67;;;;;;;10.95;100.00;102640.19;6185873;28;20363;-71
2023/05/27 07:04:13;;;;;;;8.27;2.55;;;;;;;11.05;100.00;102646.94;6191787;28;20051;-72
2023/05/27 07:07:14;;;;;;;8.93;2.55;;;;;;;11.11;100.00;102632.75;6183024;28;20046;-71
2023/05/27 07:10:16;;;;;;;9.40;2.53;;;;;;;11.18;100.00;102636.97;6191003;28;20046;-71
2023/05/27 07:13:19;;;;;;;10.48;2.25;;;;;;;11.23;100.00;102631.59;6188679;28;20051;-71
2023/05/27 07:16:21;;;;;;;10.77;2.50;;;;;;;11.30;100.00;102631.38;6184009;28;20130;-71
2023/05/27 07:19:22;;;;;;;13.32;3.13;;;;;;;11.39;100.00;102638.16;6196971;28;20050;-71
2023/05/27 07:22:25;;;;;;;8.52;2.38;;;;;;;11.43;100.00;102622.25;6200981;28;20062;-71
2023/05/27 07:25:26;;;;;;;6.20;3.13;;;;;;;11.55;100.00;102626.34;6202943;28;20046;-72
2023/05/27 07:28:29;;;;;;;11.65;3.03;;;;;;;11.67;100.00;102619.84;6193826;28;20051;-71
2023/05/27 07:31:30;;;;;;;11.00;2.97;;;;;;;11.68;100.00;102619.81;6188119;28;20062;-71
2023/05/27 07:34:31;;;;;;;9.75;2.95;;;;;;;11.74;100.00;102612.66;6188619;28;20046;-71
2023/05/27 07:37:33;;;;;;;9.88;3.63;;;;;;;11.80;100.00;102615.09;6189298;28;20447;-71
2023/05/27 07:40:34;;;;;;;11.48;3.13;;;;;;;11.86;100.00;102612.34;6187589;28;20049;-71
2023/05/27 07:43:37;;;;;;;10.18;2.20;;;;;;;11.87;100.00;102609.66;6188711;28;20074;-71
2023/05/27 07:46:38;;;;;;;6.70;2.10;;;;;;;11.98;100.00;102605.84;6196355;28;20042;-71
2023/05/27 07:49:40;;;;;;;5.70;2.00;;;;;;;12.05;100.00;102604.75;6190884;28;20134;-71
2023/05/27 07:52:42;;;;;;;17.00;2.58;;;;;;;12.17;100.00;102604.38;6187533;28;20042;-71
2023/05/27 07:55:43;;;;;;;8.75;2.08;;;;;;;12.16;100.00;102614.06;6187655;28;20355;-71
2023/05/27 07:58:46;;;;;;;8.65;2.88;;;;;;;12.24;100.00;102597.16;6190399;28;20062;-71
2023/05/27 08:01:47;;;;;;;6.07;2.15;;;;;;;12.22;100.00;102589.31;6187703;28;20090;-69
2023/05/27 08:04:49;;;;;;;7.13;1.55;;;;;;;12.28;100.00;102588.25;6180090;28;20062;-71
2023/05/27 08:07:50;;;;;;;9.00;2.60;;;;;;;12.41;100.00;102579.06;6177567;28;20432;-72
2023/05/27 08:10:52;;;;;;;6.40;1.88;;;;;;;12.41;100.00;102581.69;6186656;28;20130;-72
2023/05/27 08:13:55;;;;;;;11.13;2.20;;;;;;;12.55;100.00;102573.34;6200144;28;20465;-71
2023/05/27 08:16:56;;;;;;;6.25;1.60;;;;;;;12.60;100.00;102574.06;6187853;28;20344;-72
2023/05/27 08:19:57;;;;;;;6.03;1.80;;;;;;;12.66;100.00;102576.47;6177035;28;20051;-72
2023/05/27 08:22:59;;;;;;;10.80;2.20;;;;;;;12.74;100.00;102568.31;6178310;28;20050;-72
2023/05/27 08:26:00;;;;;;;7.32;2.60;;;;;;;12.81;100.00;102567.19;6178756;28;20054;-72
2023/05/27 08:29:03;;;;;;;5.22;2.15;;;;;;;12.82;100.00;102566.28;6191929;28;20050;-71
2023/05/27 08:32:04;;;;;;;11.18;2.08;;;;;;;12.91;100.00;102556.28;6197224;28;20050;-72
2023/05/27 08:35:06;;;;;;;8.57;2.13;;;;;;;12.95;100.00;102563.19;6189259;28;20053;-71
2023/05/27 08:38:07;;;;;;;6.05;1.75;;;;;;;13.04;100.00;102569.06;6197616;28;20173;-72
2023/05/27 08:41:09;;;;;;;11.27;2.30;;;;;;;13.08;100.00;102553.06;6200131;28;20046;-72
2023/05/27 08:44:12;;;;;;;6.57;1.88;;;;;;;13.16;100.00;102555.44;6192961;28;20355;-72
2023/05/27 08:47:14;;;;;;;7.38;2.03;;;;;;;13.27;100.00;102560.38;6193068;28;20347;-72
2023/05/27 08:50:15;;;;;;;6.05;1.70;;;;;;;13.42;100.00;102554.53;6200465;28;20054;-72
2023/05/27 08:53:18;;;;;;;4.75;1.38;;;;;;;13.47;99.66;102555.22;6199504;28;20057;-72
2023/05/27 08:56:21;;;;;;;5.15;2.13;;;;;;;13.60;100.00;102547.72;6204146;28;20329;-72
2023/05/27 08:59:25;;;;;;;3.60;1.40;;;;;;;13.70;96.83;102544.66;6197182;28;20078;-72
2023/05/27 09:02:28;;;;;;;5.22;1.60;;;;;;;13.78;92.44;102540.88;6194149;28;20443;-72
2023/05/27 09:05:30;;;;;;;6.80;1.85;;;;;;;13.79;95.36;102532.88;6201348;28;20047;-72
2023/05/27 09:08:31;;;;;;;2.85;1.23;;;;;;;13.82;93.41;102538.06;6197882;28;20050;-72
2023/05/27 09:11:35;;;;;;;10.93;2.85;;;;;;;13.89;95.85;102525.47;6205558;28;20428;-72
2023/05/27 09:14:38;;;;;;;4.85;1.48;;;;;;;13.96;92.75;102533.09;6205840;28;20357;-71
2023/05/27 09:17:41;;;;;;;2.83;1.27;;;;;;;14.03;91.17;102524.94;6205422;28;20057;-72
2023/05/27 09:20:43;;;;;;;8.43;1.65;;;;;;;14.11;90.88;102515.78;6205196;28;20042;-72
2023/05/27 09:23:44;;;;;;;3.90;1.58;;;;;;;14.05;93.67;102523.09;6184665;28;20058;-72
2023/05/27 09:26:46;;;;;;;7.90;2.03;;;;;;;14.05;92.69;102528.38;6181550;28;20141;-70
2023/05/27 09:29:49;;;;;;;6.80;2.05;;;;;;;14.17;88.10;102517.31;6192844;28;20046;-70
2023/05/27 09:32:50;;;;;;;7.72;1.75;;;;;;;14.32;86.87;102523.78;6187565;28;20062;-69
2023/05/27 09:35:52;;;;;;;5.00;1.42;;;;;;;14.35;86.53;102516.59;6191076;28;20362;-71
2023/05/27 09:38:53;;;;;;;3.67;1.65;;;;;;;14.35;89.71;102523.63;6184986;28;20056;-71
2023/05/27 09:41:56;;;;;;;4.50;1.65;;;;;;;14.34;88.83;102506.91;6192971;28;20173;-71
2023/05/27 09:44:59;;;;;;;6.25;2.53;;;;;;;14.54;86.21;102505.28;6196653;28;20443;-71
2023/05/27 09:48:02;;;;;;;9.65;2.00;;;;;;;14.53;91.23;102508.81;6186694;28;20648;-71
2023/05/27 09:51:04;;;;;;;4.05;1.42;;;;;;;14.59;92.21;102506.81;6177588;28;20359;-71
2023/05/27 09:54:07;;;;;;;6.15;1.98;;;;;;;14.85;85.86;102497.75;6190807;28;20070;-71
2023/05/27 09:57:08;;;;;;;4.97;2.00;;;;;;;14.78;85.36;102496.28;6204491;28;20342;-71
2023/05/27 10:00:15;;;;;;;5.60;1.98;;;;;;;14.86;85.01;102496.81;6196078;28;20042;-71
2023/05/27 10:03:17;;;;;;;8.88;2.38;;;;;;;14.84;84.32;102490.72;6186843;28;20130;-71
2023/05/27 10:06:19;;;;;;;5.15;1.65;;;;;;;14.78;82.76;102493.66;6179612;28;20121;-71
2023/05/27 10:09:21;;;;;;;9.30;2.35;;;;;;;14.85;85.90;102488.94;6197597;28;20463;-71
2023/05/27 10:12:22;;;;;;;2.65;1.60;;;;;;;14.90;88.80;102479.88;6183999;28;20134;-71
2023/05/27 10:15:28;;;;;;;10.43;2.05;;;;;;;15.16;86.35;102476.06;6180297;28;20086;-71
2023/05/27 10:18:31;;;;;;;8.48;1.90;;;;;;;15.22;82.57;102472.31;6180274;28;20043;-71
2023/05/27 10:21:32;;;;;;;6.57;1.98;;;;;;;15.27;85.27;102461.50;6182675;28;20050;-71
2023/05/27 10:24:34;;;;;;;3.40;1.50;;;;;;;15.63;80.44;102466.88;6193374;28;20056;-71
2023/05/27 10:27:43;;;;;;;10.50;1.67;;;;;;;15.78;81.23;102468.81;6204084;28;20132;-71
2023/05/27 10:30:46;;;;;;;9.20;2.08;;;;;;;15.80;84.17;102464.28;6201255;28;20351;-72
2023/05/27 10:33:50;;;;;;;7.22;1.95;;;;;;;15.81;81.56;102460.75;6203586;28;20062;-72
2023/05/27 10:37:00;;;;;;;7.65;2.10;;;;;;;15.86;83.33;102461.38;6196250;28;20054;-71
2023/05/27 10:40:02;;;;;;;13.93;2.85;;;;;;;15.97;85.35;102464.34;6186912;28;20404;-70
2023/05/27 10:43:03;;;;;;;5.40;2.15;;;;;;;15.94;81.86;102461.88;6179139;28;20440;-71
2023/05/27 10:46:09;;;;;;;5.38;1.77;;;;;;;15.81;82.13;102452.78;6188802;28;20051;-71
2023/05/27 10:49:12;;;;;;;4.80;1.48;;;;;;;15.67;80.17;102444.63;6202688;28;20050;-71
2023/05/27 10:52:15;;;;;;;9.25;1.60;;;;;;;15.71;81.86;102446.19;6201901;28;20133;-71
2023/05/27 10:55:17;;;;;;;4.63;1.48;;;;;;;15.77;84.60;102442.41;6203281;28;20070;-71
2023/05/27 10:58:19;;;;;;;3.47;1.48;;;;;;;15.87;81.90;102433.06;6195302;28;20050;-71
2023/05/27 11:01:27;;;;;;;7.05;1.73;;;;;;;16.29;82.34;102429.22;6201872;28;20046;-71
2023/05/27 11:04:35;;;;;;;8.07;1.80;;;;;;;16.47;76.79;102425.63;6194953;28;20132;-71
2023/05/27 11:07:38;;;;;;;9.30;2.03;;;;;;;16.48;81.22;102425.53;6202905;28;20328;-71
2023/05/27 11:10:41;;;;;;;10.93;1.80;;;;;;;16.61;81.30;102420.47;6202295;28;20089;-71
2023/05/27 11:13:44;;;;;;;6.82;2.03;;;;;;;16.88;77.80;102418.19;6194844;28;20174;-71
2023/05/27 11:16:51;;;;;;;5.93;1.65;;;;;;;16.91;75.41;102412.72;6203008;28;20092;-71
2023/05/27 11:19:52;;;;;;;9.18;2.10;;;;;;;16.99;76.89;102414.97;6201914;28;20061;-71
2023/05/27 11:22:54;;;;;;;4.93;2.00;;;;;;;16.98;76.12;102415.91;6201097;28;20054;-72
2023/05/27 11:25:56;;;;;;;4.97;1.80;;;;;;;17.05;73.24;102400.50;6192893;28;20051;-69
2023/05/27 11:29:00;;;;;;;8.77;1.90;;;;;;;17.15;74.96;102407.03;6201135;28;20042;-71
2023/05/27 11:32:03;;;;;;;3.80;1.70;;;;;;;17.41;77.10;102397.63;6201735;28;20076;-71
2023/05/27 11:35:06;;;;;;;5.72;1.90;;;;;;;17.56;72.54;102398.56;6202190;28;20443;-70
2023/05/27 11:38:17;;;;;;;6.57;2.28;;;;;;;17.63;70.22;102397.28;6186292;28;20076;-72
2023/05/27 11:41:19;;;;;;;2.90;1.50;;;;;;;17.67;74.98;102390.84;6177567;28;20082;-71
2023/05/27 11:44:22;;;;;;;6.20;1.90;;;;;;;18.02;72.40;102393.28;6181028;28;20439;-72
2023/05/27 11:47:24;;;;;;;8.57;1.75;;;;;;;18.31;70.32;102384.47;6201963;28;20057;-72
2023/05/27 11:50:27;;;;;;;2.65;1.38;;;;;;;18.29;68.87;102378.34;6190664;28;20432;-73
2023/05/27 11:53:29;;;;;;;8.68;2.67;;;;;;;18.47;62.83;102376.38;6179310;28;20046;-72
2023/05/27 11:56:31;;;;;;;6.10;1.40;;;;;;;18.54;63.65;102372.41;6177990;28;20407;-71
2023/05/27 11:59:32;;;;;;;8.25;1.58;;;;;;;18.79;72.88;102369.13;6177160;28;20057;-72
2023/05/27 12:02:35;;;;;;;7.55;2.35;;;;;;;19.19;70.43;102356.81;6178039;28;20133;-68
2023/05/27 12:05:37;;;;;;;7.35;2.75;;;;;;;19.41;68.35;102355.44;6177703;28;20046;-69
2023/05/27 12:08:38;;;;;;;5.05;1.77;;;;;;;19.45;63.05;102354.28;6184835;28;20347;-69
2023/05/27 12:11:40;;;;;;;6.32;1.80;;;;;;;19.60;68.48;102357.75;6195034;28;20145;-70
2023/05/27 12:14:41;;;;;;;7.57;1.90;;;;;;;19.80;66.06;102349.28;6193909;28;20061;-69
2023/05/27 12:17:44;;;;;;;6.10;2.03;;;;;;;19.92;64.42;102342.28;6194059;28;20042;-69
2023/05/27 12:20:45;;;;;;;9.52;2.13;;;;;;;20.02;63.30;102333.56;6199117;28;20062;-70
2023/05/27 12:23:47;;;;;;;10.00;2.85;;;;;;;19.96;59.62;102323.31;6192645;28;20061;-70
2023/05/27 12:26:49;;;;;;;5.45;1.55;;;;;;;19.89;60.59;102318.47;6195574;28;20450;-69
2023/05/27 12:29:50;;;;;;;12.10;1.70;;;;;;;20.22;64.14;102304.66;6188269;28;20045;-69
2023/05/27 12:32:54;;;;;;;3.47;1.58;;;;;;;20.48;61.70;102301.06;6192043;28;20057;-69
2023/05/27 12:35:55;;;;;;;3.17;1.42;;;;;;;20.51;56.78;102298.16;6197738;28;20061;-69
2023/05/27 12:38:57;;;;;;;6.07;1.92;;;;;;;20.70;61.03;102292.34;6194940;28;20042;-68
2023/05/27 12:41:58;;;;;;;4.55;1.83;;;;;;;20.87;59.49;102290.28;6198082;28;20527;-69
2023/05/27 12:45:00;;;;;;;7.22;1.85;;;;;;;20.86;57.37;102286.78;6194854;28;20073;-69
2023/05/27 12:48:03;;;;;;;5.00;1.40;;;;;;;20.95;57.38;102283.44;6189748;28;20454;-69
2023/05/27 12:51:04;;;;;;;6.95;1.90;;;;;;;21.21;56.17;102283.31;6194331;28;20119;-71
2023/05/27 12:54:06;;;;;;;4.57;1.85;;;;;;;21.34;55.47;102273.44;6198762;28;20062;-69
2023/05/27 12:57:07;;;;;;;3.28;1.40;;;;;;;21.37;54.70;102275.91;6194852;28;20054;-69
2023/05/27 13:00:11;;;;;;;6.10;1.58;;;;;;;21.51;53.42;102267.69;6192803;28;20140;-69
2023/05/27 13:03:13;;;;;;;2.80;1.58;;;;;;;21.53;54.49;102260.44;6192213;28;20054;-69
2023/05/27 13:06:15;;;;;;;3.83;1.60;;;;;;;21.52;54.22;102256.03;6186167;28;20077;-69
2023/05/27 13:09:18;;;;;;;3.88;1.40;;;;;;;21.52;52.24;102255.16;6192476;28;20046;-69
2023/05/27 13:12:20;;;;;;;9.25;1.92;;;;;;;21.43;51.24;102253.19;6187812;28;20046;-69
2023/05/27 13:15:23;;;;;;;5.63;1.63;;;;;;;21.69;50.74;102249.41;6197419;28;20125;-69
2023/05/27 13:18:26;;;;;;;6.15;1.58;;;;;;;21.79;51.72;102255.75;6192915;28;20051;-70
2023/05/27 13:21:27;;;;;;;6.10;1.70;;;;;;;21.83;51.17;102244.81;6195824;28;20069;-69
2023/05/27 13:24:29;;;;;;;3.78;1.75;;;;;;;21.95;51.06;102239.38;6194709;28;20050;-70
2023/05/27 13:27:30;;;;;;;6.85;1.95;;;;;;;21.82;51.26;102235.09;6186566;28;20431;-70
2023/05/27 13:30:32;;;;;;;4.78;2.08;;;;;;;21.76;51.86;102223.03;6187948;28;20062;-70
2023/05/27 13:33:35;;;;;;;2.83;1.25;;;;;;;21.79;49.84;102220.09;6191452;28;20046;-69
2023/05/27 13:36:36;;;;;;;9.55;2.60;;;;;;;21.98;53.51;102214.16;6194287;28;20046;-69
2023/05/27 13:39:42;;;;;;;3.10;1.40;;;;;;;22.32;52.90;102207.03;6191306;28;20053;-70
2023/05/27 13:42:43;;;;;;;5.38;1.63;;;;;;;22.41;49.47;102200.09;6194911;28;20057;-70
2023/05/27 13:45:45;;;;;;;3.35;1.60;;;;;;;22.57;47.19;102197.84;6196368;28;20077;-70
2023/05/27 13:48:48;;;;;;;6.55;2.25;;;;;;;22.86;48.67;102202.69;6196405;28;20053;-70
2023/05/27 13:51:49;;;;;;;7.10;1.83;;;;;;;22.99;49.48;102198.06;6195291;28;20066;-70
2023/05/27 13:54:50;;;;;;;6.20;1.65;;;;;;;22.94;48.43;102195.75;6199319;28;20046;-69
2023/05/27 13:57:52;;;;;;;6.70;1.70;;;;;;;23.00;50.28;102192.56;6203290;28;20047;-69
2023/05/27 14:00:53;;;;;;;9.02;2.17;;;;;;;22.90;46.08;102178.22;6201588;28;20046;-70